Jonesburg, Missouri
Current Conditions -  °F | °C
As of 1:35 PM on Friday 26 Dec 2014 (Local Time) from KFYG Reporting Station
Few Clouds Few Clouds  
Wind Chill: 59°   Ceiling: Unl
Heat Index: 59°   Visibility: 10mi
Dew Point: 45°   Wind: 12mph
Humidity: 59%   Direction: 210°SSW
Pressure: 30"   Gusts: NA
Location:  38.85°N, 91.31°W
Report Text: KFYG 261935Z AUTO 21010KT 10SM FEW040 15/07 A3000 RMK AO2
Loading
Personal Weather Stations






























Interactive Weather Map New forecast layout! Learn more

10-Day Weather Forecast

Advertisements
Track Severe Weather on mobile